地図

経路データ

SID SEASON NUMBER BASIN SUBBASIN NAME ISO_TIME NATURE LAT LON WMO_WIND WMO_PRES WMO_AGENCY TRACK_TYPE DIST2LAND LANDFALL IFLAG USA_AGENCY USA_ATCF_ID USA_LAT USA_LON USA_RECORD USA_STATUS USA_WIND USA_PRES USA_SSHS USA_R34_NE USA_R34_SE USA_R34_SW USA_R34_NW USA_R50_NE USA_R50_SE USA_R50_SW USA_R50_NW USA_R64_NE USA_R64_SE USA_R64_SW USA_R64_NW USA_POCI USA_ROCI USA_RMW USA_EYE TOKYO_LAT TOKYO_LON TOKYO_GRADE TOKYO_WIND TOKYO_PRES TOKYO_R50_DIR TOKYO_R50_LONG TOKYO_R50_SHORT TOKYO_R30_DIR TOKYO_R30_LONG TOKYO_R30_SHORT TOKYO_LAND CMA_LAT CMA_LON CMA_CAT CMA_WIND CMA_PRES HKO_LAT HKO_LON HKO_CAT HKO_WIND HKO_PRES NEWDELHI_LAT NEWDELHI_LON NEWDELHI_GRADE NEWDELHI_WIND NEWDELHI_PRES NEWDELHI_CI NEWDELHI_DP NEWDELHI_POCI REUNION_LAT REUNION_LON REUNION_TYPE REUNION_WIND REUNION_PRES REUNION_TNUM REUNION_CI REUNION_RMW REUNION_R34_NE REUNION_R34_SE REUNION_R34_SW REUNION_R34_NW REUNION_R50_NE REUNION_R50_SE REUNION_R50_SW REUNION_R50_NW REUNION_R64_NE REUNION_R64_SE REUNION_R64_SW REUNION_R64_NW BOM_LAT BOM_LON BOM_TYPE BOM_WIND BOM_PRES BOM_TNUM BOM_CI BOM_RMW BOM_R34_NE BOM_R34_SE BOM_R34_SW BOM_R34_NW BOM_R50_NE BOM_R50_SE BOM_R50_SW BOM_R50_NW BOM_R64_NE BOM_R64_SE BOM_R64_SW BOM_R64_NW BOM_ROCI BOM_POCI BOM_EYE BOM_POS_METHOD BOM_PRES_METHOD NADI_LAT NADI_LON NADI_CAT NADI_WIND NADI_PRES WELLINGTON_LAT WELLINGTON_LON WELLINGTON_WIND WELLINGTON_PRES DS824_LAT DS824_LON DS824_STAGE DS824_WIND DS824_PRES TD9636_LAT TD9636_LON TD9636_STAGE TD9636_WIND TD9636_PRES TD9635_LAT TD9635_LON TD9635_WIND TD9635_PRES TD9635_ROCI NEUMANN_LAT NEUMANN_LON NEUMANN_CLASS NEUMANN_WIND NEUMANN_PRES MLC_LAT MLC_LON MLC_CLASS MLC_WIND MLC_PRES USA_GUST BOM_GUST BOM_GUST_PER REUNION_GUST REUNION_GUST_PER USA_SEAHGT USA_SEARAD_NE USA_SEARAD_SE USA_SEARAD_SW USA_SEARAD_NW STORM_SPEED STORM_DIR
1882111S06093 1882 16 SI WA NOT_NAMED 1882-04-21 06:00:00 NR -6.10000 93.3000 main 793 793 _____O________ -1 -6.10000 93.3000 99 9.90000 6 222
1882111S06093 1882 16 SI WA NOT_NAMED 1882-04-21 09:00:00 NR -6.32844 93.0940 main 824 824 _____P________ -1 -6.32844 93.0940 99 6 222
1882111S06093 1882 16 SI WA NOT_NAMED 1882-04-21 12:00:00 NR -6.55652 92.8896 main 863 863 _____P________ -1 -6.55652 92.8896 99 6 222
1882111S06093 1882 16 SI WA NOT_NAMED 1882-04-21 15:00:00 NR -6.78392 92.6887 main 894 894 _____P________ -1 -6.78392 92.6887 99 6 221
1882111S06093 1882 16 SI WA NOT_NAMED 1882-04-21 18:00:00 NR -7.01033 92.4931 main 925 925 _____P________ -1 -7.01033 92.4931 99 6 220
1882111S06093 1882 16 SI WA NOT_NAMED 1882-04-21 21:00:00 NR -7.23543 92.3046 main 957 957 _____P________ -1 -7.23543 92.3046 99 6 219
1882111S06093 1882 16 SI WA NOT_NAMED 1882-04-22 00:00:00 NR -7.45894 92.1250 main 995 995 _____P________ -1 -7.45894 92.1250 99 6 218
1882111S06093 1882 16 SI WA NOT_NAMED 1882-04-22 03:00:00 NR -7.68056 91.9562 main 1018 1018 _____P________ -1 -7.68056 91.9562 99 5 216
1882111S06093 1882 16 SI WA NOT_NAMED 1882-04-22 06:00:00 NR -7.90000 91.8000 main 1049 1049 _____O________ -1 -7.90000 91.8000 99 9.90000 5 214
1882111S06093 1882 16 SI WA NOT_NAMED 1882-04-22 09:00:00 NR -8.11748 91.6581 main 1072 1072 _____P________ -1 -8.11748 91.6581 99 5 211
1882111S06093 1882 16 SI WA NOT_NAMED 1882-04-22 12:00:00 NR -8.33523 91.5309 main 1104 1104 _____P________ -1 -8.33523 91.5309 99 5 208
1882111S06093 1882 16 SI WA NOT_NAMED 1882-04-22 15:00:00 NR -8.55597 91.4190 main 1134 1134 _____P________ -1 -8.55597 91.4190 99 5 205
1882111S06093 1882 16 SI WA NOT_NAMED 1882-04-22 18:00:00 NR -8.78242 91.3226 main 1158 1158 _____P________ -1 -8.78242 91.3226 99 5 201
1882111S06093 1882 16 SI WA NOT_NAMED 1882-04-22 21:00:00 NR -9.01732 91.2421 main 1181 1181 _____P________ -1 -9.01732 91.2421 99 5 197
1882111S06093 1882 16 SI WA NOT_NAMED 1882-04-23 00:00:00 NR -9.26340 91.1780 main 1204 1204 _____P________ -1 -9.26340 91.1780 99 5 193
1882111S06093 1882 16 SI WA NOT_NAMED 1882-04-23 03:00:00 NR -9.52339 91.1305 main 1228 1228 _____P________ -1 -9.52339 91.1305 99 5 188
1882111S06093 1882 16 SI WA NOT_NAMED 1882-04-23 06:00:00 NR -9.80000 91.1000 main 1252 1252 _____O________ -1 -9.80000 91.1000 99 9.90000 6 185
1882111S06093 1882 16 SI WA NOT_NAMED 1882-04-23 09:00:00 NR -10.1327 91.0715 main 1276 1276 _____P________ -1 -10.1327 91.0715 99 7 183
1882111S06093 1882 16 SI WA NOT_NAMED 1882-04-23 12:00:00 NR -10.4864 91.0607 main 1309 1309 _____P________ -1 -10.4864 91.0607 99 7 182
1882111S06093 1882 16 SI WA NOT_NAMED 1882-04-23 15:00:00 NR -10.8512 91.0662 main 1343 1343 _____P________ -1 -10.8512 91.0662 99 7 0
1882111S06093 1882 16 SI WA NOT_NAMED 1882-04-23 18:00:00 NR -11.2173 91.0871 main 1369 1369 _____P________ -1 -11.2173 91.0871 99 7 175
1882111S06093 1882 16 SI WA NOT_NAMED 1882-04-23 21:00:00 NR -11.5750 91.1221 main 1404 1404 _____P________ -1 -11.5750 91.1221 99 7 173
1882111S06093 1882 16 SI WA NOT_NAMED 1882-04-24 00:00:00 NR -11.9146 91.1701 main 1424 1424 _____P________ -1 -11.9146 91.1701 99 7 171
1882111S06093 1882 16 SI WA NOT_NAMED 1882-04-24 03:00:00 NR -12.2262 91.2298 main 1450 1450 _____P________ -1 -12.2262 91.2298 99 6 168
1882111S06093 1882 16 SI WA NOT_NAMED 1882-04-24 06:00:00 NR -12.5000 91.3000 main 1471 1471 _____O________ -1 -12.5000 91.3000 99 9.90000 5 164
1882111S06093 1882 16 SI WA NOT_NAMED 1882-04-24 09:00:00 NR -12.7289 91.3796 main 1484 1484 _____P________ -1 -12.7289 91.3796 99 5 158
1882111S06093 1882 16 SI WA NOT_NAMED 1882-04-24 12:00:00 NR -12.9163 91.4673 main 1496 1496 _____P________ -1 -12.9163 91.4673 99 4 153
1882111S06093 1882 16 SI WA NOT_NAMED 1882-04-24 15:00:00 NR -13.0681 91.5621 main 1509 1509 _____P________ -1 -13.0681 91.5621 99 3 145
1882111S06093 1882 16 SI WA NOT_NAMED 1882-04-24 18:00:00 NR -13.1901 91.6626 main 1512 1512 _____P________ -1 -13.1901 91.6626 99 3 138
1882111S06093 1882 16 SI WA NOT_NAMED 1882-04-24 21:00:00 NR -13.2884 91.7679 main 1516 1516 _____P________ -1 -13.2884 91.7679 99 3 131
1882111S06093 1882 16 SI WA NOT_NAMED 1882-04-25 00:00:00 NR -13.3689 91.8766 main 1520 1515 _____P________ -1 -13.3689 91.8766 99 3 125
1882111S06093 1882 16 SI WA NOT_NAMED 1882-04-25 03:00:00 NR -13.4374 91.9877 main 1515 1515 _____P________ -1 -13.4374 91.9877 99 3 121
1882111S06093 1882 16 SI WA NOT_NAMED 1882-04-25 06:00:00 NR -13.5000 92.1000 main 1519 _____O________ -1 -13.5000 92.1000 99 9.90000 3 118

IBTrACS Databaseについて

本データベースは、米国NOAAが公開する1842年以降の世界の熱帯低気圧のベストトラックデータアーカイブInternational Best Track Archive for Climate Stewardship (IBTrACS)を、ウェブで閲覧しやすい形式に変換したものです。

最終更新日:2021-10-21